createdAt,value
2023-04-24T00:00:55.949Z,13.30
2023-04-24T00:01:59.490Z,13.30
2023-04-24T00:03:01.906Z,13.30
2023-04-24T00:04:04.870Z,13.30
2023-04-24T00:05:08.686Z,13.20
2023-04-24T00:06:10.921Z,13.30
2023-04-24T00:07:14.045Z,13.20
2023-04-24T00:08:17.766Z,13.10
2023-04-24T00:09:19.947Z,13.20
2023-04-24T00:10:22.550Z,13.10
2023-04-24T00:11:24.788Z,13.20
2023-04-24T00:12:27.863Z,13.20
2023-04-24T00:13:30.132Z,13.10
2023-04-24T00:14:32.780Z,13.10
2023-04-24T00:15:35.338Z,13.10
2023-04-24T00:16:37.532Z,13.10
2023-04-24T00:17:39.922Z,13.10
2023-04-24T00:18:42.584Z,13.10
2023-04-24T00:19:45.064Z,13.10
2023-04-24T00:20:47.665Z,13.00
2023-04-24T00:21:53.546Z,13.00
2023-04-24T00:22:55.845Z,13.00
2023-04-24T00:23:59.708Z,13.00
2023-04-24T00:25:01.852Z,12.90
2023-04-24T00:26:04.091Z,12.90
2023-04-24T00:27:06.374Z,12.90
2023-04-24T00:28:08.535Z,12.90
2023-04-24T00:29:10.712Z,12.90
2023-04-24T00:30:13.106Z,12.90
2023-04-24T00:31:15.381Z,12.90
2023-04-24T00:32:19.005Z,12.90
2023-04-24T00:33:21.678Z,12.90
2023-04-24T00:34:24.072Z,12.80
2023-04-24T00:35:26.256Z,12.80
2023-04-24T00:36:28.502Z,12.80
2023-04-24T00:37:30.796Z,12.80
2023-04-24T00:38:32.951Z,12.80
2023-04-24T00:39:36.524Z,12.80
2023-04-24T00:40:39.148Z,12.80
2023-04-24T00:41:41.374Z,12.70
2023-04-24T00:42:44.924Z,12.70
2023-04-24T00:43:47.236Z,12.70
2023-04-24T00:44:49.998Z,12.70
2023-04-24T00:45:52.317Z,12.70
2023-04-24T00:46:55.934Z,12.60
2023-04-24T00:47:58.592Z,12.70
2023-04-24T00:49:01.101Z,12.70
2023-04-24T00:50:04.048Z,12.70
2023-04-24T00:51:06.423Z,12.70
2023-04-24T00:52:09.912Z,12.60
2023-04-24T00:53:12.268Z,12.60
2023-04-24T00:54:14.954Z,12.60
2023-04-24T00:55:18.894Z,12.60
2023-04-24T00:56:21.426Z,12.60
2023-04-24T00:57:24.748Z,12.60
2023-04-24T00:58:27.846Z,12.60
2023-04-24T00:59:30.126Z,12.60
2023-04-24T01:00:32.797Z,12.50
2023-04-24T01:01:35.243Z,12.60
2023-04-24T01:02:38.498Z,12.60
2023-04-24T01:03:41.852Z,12.60
2023-04-24T01:04:44.647Z,12.60
2023-04-24T01:05:47.244Z,12.60
2023-04-24T01:06:53.376Z,12.50
2023-04-24T01:07:56.192Z,12.50
2023-04-24T01:08:59.725Z,12.50
2023-04-24T01:10:02.097Z,12.50
2023-04-24T01:11:06.668Z,12.40
2023-04-24T01:12:09.121Z,12.50
2023-04-24T01:13:12.202Z,12.40
2023-04-24T01:14:14.646Z,12.40
2023-04-24T01:15:16.826Z,12.40
2023-04-24T01:16:22.089Z,12.40
2023-04-24T01:17:24.434Z,12.40
2023-04-24T01:18:27.905Z,12.30
2023-04-24T01:19:30.229Z,12.30
2023-04-24T01:20:33.454Z,12.40
2023-04-24T01:21:38.268Z,12.40
2023-04-24T01:22:42.392Z,12.30
2023-04-24T01:23:44.836Z,12.40
2023-04-24T01:24:47.028Z,12.40
2023-04-24T01:25:50.034Z,12.40
2023-04-24T01:26:52.681Z,12.30
2023-04-24T01:27:54.916Z,12.30
2023-04-24T01:28:57.620Z,12.30
2023-04-24T01:30:00.101Z,12.30
2023-04-24T01:31:02.556Z,12.30
2023-04-24T01:33:13.795Z,12.30
2023-04-24T01:34:16.454Z,12.30
2023-04-24T01:35:18.748Z,12.30
2023-04-24T01:36:23.552Z,12.30
2023-04-24T01:37:27.989Z,12.30
2023-04-24T01:38:31.972Z,12.30
2023-04-24T01:39:34.578Z,12.30
2023-04-24T01:40:37.038Z,12.30
2023-04-24T01:41:39.330Z,12.30
2023-04-24T01:42:42.868Z,12.30
2023-04-24T01:43:45.306Z,12.30
2023-04-24T01:44:48.047Z,12.30
2023-04-24T01:45:50.345Z,12.30
2023-04-24T01:46:55.129Z,12.20
2023-04-24T01:47:58.285Z,12.20
2023-04-24T01:49:01.720Z,12.30
2023-04-24T01:50:05.308Z,12.20
2023-04-24T01:51:07.609Z,12.20
2023-04-24T01:52:09.895Z,12.20
2023-04-24T01:53:12.575Z,12.20
2023-04-24T01:54:16.462Z,12.20
2023-04-24T01:55:19.009Z,12.20
2023-04-24T01:56:22.787Z,12.20
2023-04-24T01:57:25.848Z,12.20
2023-04-24T01:58:28.649Z,12.20
2023-04-24T01:59:32.058Z,12.20
2023-04-24T02:00:34.380Z,12.10
2023-04-24T02:01:37.372Z,12.10
2023-04-24T02:02:41.387Z,12.10
2023-04-24T02:03:44.054Z,12.10
2023-04-24T02:04:46.394Z,12.10
2023-04-24T02:05:48.604Z,12.10
2023-04-24T02:06:50.903Z,12.10
2023-04-24T02:07:53.110Z,12.10
2023-04-24T02:08:55.541Z,12.10
2023-04-24T02:09:59.342Z,12.10
2023-04-24T02:11:03.019Z,12.10
2023-04-24T02:12:05.404Z,12.10
2023-04-24T02:13:07.606Z,12.10
2023-04-24T02:14:09.906Z,12.10
2023-04-24T02:15:13.256Z,12.10
2023-04-24T02:16:15.533Z,12.10
2023-04-24T02:17:17.906Z,12.10
2023-04-24T02:18:20.195Z,12.10
2023-04-24T02:19:22.399Z,12.10
2023-04-24T02:20:25.003Z,12.10
2023-04-24T02:21:28.495Z,12.10
2023-04-24T02:22:30.736Z,12.10
2023-04-24T02:23:32.967Z,12.00
2023-04-24T02:24:35.263Z,12.00
2023-04-24T02:25:38.880Z,12.00
2023-04-24T02:26:41.192Z,12.00
2023-04-24T02:27:43.506Z,12.00
2023-04-24T02:28:45.729Z,11.90
2023-04-24T02:29:47.932Z,11.90
2023-04-24T02:30:50.925Z,11.90
2023-04-24T02:31:53.133Z,11.90
2023-04-24T02:32:55.360Z,11.90
2023-04-24T02:33:57.575Z,11.90
2023-04-24T02:35:00.485Z,11.90
2023-04-24T02:36:02.836Z,11.90
2023-04-24T02:37:05.118Z,11.90
2023-04-24T02:38:07.400Z,11.90
2023-04-24T02:39:09.616Z,11.90
2023-04-24T02:40:12.122Z,11.90
2023-04-24T02:41:15.841Z,11.90
2023-04-24T02:42:18.038Z,11.90
2023-04-24T02:43:20.344Z,11.90
2023-04-24T02:44:23.687Z,11.90
2023-04-24T02:45:26.036Z,11.90
2023-04-24T02:46:28.373Z,11.90
2023-04-24T02:47:30.711Z,11.80
2023-04-24T02:48:33.059Z,11.90
2023-04-24T02:49:35.273Z,11.80
2023-04-24T02:50:37.468Z,11.80
2023-04-24T02:51:42.210Z,11.90
2023-04-24T02:52:44.495Z,11.80
2023-04-24T02:53:46.822Z,11.80
2023-04-24T02:54:49.068Z,11.80
2023-04-24T02:55:51.323Z,11.80
2023-04-24T02:56:54.951Z,11.80
2023-04-24T02:57:57.239Z,11.80
2023-04-24T02:58:59.437Z,11.80
2023-04-24T03:00:01.696Z,11.80
2023-04-24T03:01:03.919Z,11.80
2023-04-24T03:02:06.825Z,11.80
2023-04-24T03:03:09.294Z,11.80
2023-04-24T03:04:11.908Z,11.80
2023-04-24T03:05:14.290Z,11.80
2023-04-24T03:06:16.622Z,11.80
2023-04-24T03:07:21.826Z,11.80
2023-04-24T03:08:24.098Z,11.80
2023-04-24T03:09:26.334Z,11.80
2023-04-24T03:10:28.563Z,11.80
2023-04-24T03:11:30.790Z,11.80
2023-04-24T03:12:34.443Z,11.80
2023-04-24T03:13:36.850Z,11.80
2023-04-24T03:14:39.044Z,11.70
2023-04-24T03:15:41.308Z,11.80
2023-04-24T03:16:43.479Z,11.80
2023-04-24T03:17:45.707Z,11.80
2023-04-24T03:18:47.889Z,11.70
2023-04-24T03:19:50.077Z,11.80
2023-04-24T03:20:52.412Z,11.70
2023-04-24T03:21:54.638Z,11.80
2023-04-24T03:22:58.167Z,11.70
2023-04-24T03:24:00.286Z,11.80
2023-04-24T03:25:02.856Z,11.80
2023-04-24T03:26:05.280Z,11.70
2023-04-24T03:27:07.981Z,11.80
2023-04-24T03:28:11.827Z,11.80
2023-04-24T03:29:14.260Z,11.70
2023-04-24T03:30:16.488Z,11.70
2023-04-24T03:31:20.159Z,11.80
2023-04-24T03:32:23.526Z,11.70
2023-04-24T03:33:25.920Z,11.80
2023-04-24T03:34:28.086Z,11.80
2023-04-24T03:35:30.324Z,11.80
2023-04-24T03:36:32.666Z,11.80
2023-04-24T03:37:34.902Z,11.80
2023-04-24T03:38:37.083Z,11.80
2023-04-24T03:39:39.219Z,11.90
2023-04-24T03:40:41.425Z,11.90
2023-04-24T03:41:43.641Z,11.90
2023-04-24T03:42:45.796Z,12.00
2023-04-24T03:43:49.553Z,12.00
2023-04-24T03:44:51.744Z,12.00
2023-04-24T03:45:54.026Z,12.00
2023-04-24T03:46:56.348Z,12.00
2023-04-24T03:47:58.613Z,12.10
2023-04-24T03:49:01.467Z,12.00
2023-04-24T03:50:04.167Z,12.10
2023-04-24T03:51:06.466Z,12.10
2023-04-24T03:52:08.703Z,12.10
2023-04-24T03:53:11.282Z,12.10
2023-04-24T03:54:13.554Z,12.10
2023-04-24T03:55:15.879Z,12.10
2023-04-24T03:56:18.058Z,12.20
2023-04-24T03:57:20.372Z,12.20
2023-04-24T03:58:22.761Z,12.20
2023-04-24T03:59:26.397Z,12.20
2023-04-24T04:00:28.930Z,12.20
2023-04-24T04:01:31.900Z,12.20
2023-04-24T04:02:34.309Z,12.30
2023-04-24T04:03:36.848Z,12.30
2023-04-24T04:04:39.444Z,12.30
2023-04-24T04:05:42.146Z,12.40
2023-04-24T04:06:45.252Z,12.40
2023-04-24T04:07:47.549Z,12.40
2023-04-24T04:08:49.815Z,12.40
2023-04-24T04:09:52.054Z,12.40
2023-04-24T04:10:54.263Z,12.50
2023-04-24T04:11:56.431Z,12.50
2023-04-24T04:12:58.649Z,12.50
2023-04-24T04:14:00.917Z,12.60
2023-04-24T04:15:06.761Z,12.60
2023-04-24T04:16:10.157Z,12.70
2023-04-24T04:17:12.446Z,12.70
2023-04-24T04:18:14.844Z,12.70
2023-04-24T04:19:17.181Z,12.70
2023-04-24T04:20:19.367Z,12.80
2023-04-24T04:21:21.715Z,12.80
2023-04-24T04:22:23.955Z,12.80
2023-04-24T04:23:26.938Z,12.80
2023-04-24T04:24:29.626Z,12.80
2023-04-24T04:25:31.800Z,12.80
2023-04-24T04:26:34.023Z,12.90
2023-04-24T04:27:36.335Z,12.90
2023-04-24T04:28:42.579Z,12.90
2023-04-24T04:29:45.087Z,12.90
2023-04-24T04:30:48.872Z,13.00
2023-04-24T04:31:51.139Z,13.00
2023-04-24T04:32:53.428Z,13.00
2023-04-24T04:33:55.673Z,13.00
2023-04-24T04:34:57.846Z,13.10
2023-04-24T04:36:01.845Z,13.10
2023-04-24T04:37:05.413Z,13.10
2023-04-24T04:38:09.443Z,13.10
2023-04-24T04:39:11.614Z,13.10
2023-04-24T04:40:13.815Z,13.10
2023-04-24T04:41:17.916Z,13.20
2023-04-24T04:42:20.141Z,13.20
2023-04-24T04:43:22.460Z,13.20
2023-04-24T04:44:24.689Z,13.20
2023-04-24T04:45:28.703Z,13.20
2023-04-24T04:46:34.281Z,13.30
2023-04-24T04:47:36.681Z,13.30
2023-04-24T04:48:39.137Z,13.30
2023-04-24T04:49:42.435Z,13.40
2023-04-24T04:50:44.886Z,13.40
2023-04-24T04:51:48.116Z,13.50
2023-04-24T04:52:50.504Z,13.60
2023-04-24T04:53:52.804Z,13.60
2023-04-24T04:54:54.999Z,13.60
2023-04-24T04:55:57.417Z,13.70
2023-04-24T04:57:00.070Z,13.70
2023-04-24T04:58:02.251Z,13.70
2023-04-24T04:59:04.381Z,13.80
2023-04-24T05:00:08.545Z,13.80
2023-04-24T05:01:11.262Z,13.80
2023-04-24T05:02:17.466Z,13.90
2023-04-24T05:03:21.586Z,13.90
2023-04-24T05:04:24.248Z,13.90
2023-04-24T05:05:26.541Z,13.90
2023-04-24T05:06:28.736Z,14.00
2023-04-24T05:07:30.931Z,14.00
2023-04-24T05:08:33.148Z,14.00
2023-04-24T05:09:35.363Z,14.00
2023-04-24T05:10:38.026Z,14.10
2023-04-24T05:11:40.213Z,14.10
2023-04-24T05:12:44.211Z,14.10
2023-04-24T05:13:47.899Z,14.10
2023-04-24T05:14:50.145Z,14.20
2023-04-24T05:15:52.589Z,14.20
2023-04-24T05:16:54.812Z,14.20
2023-04-24T05:17:58.623Z,14.20
2023-04-24T05:19:01.097Z,14.20
2023-04-24T05:20:06.375Z,14.20
2023-04-24T05:21:08.685Z,14.20
2023-04-24T05:22:11.501Z,14.20
2023-04-24T05:23:14.130Z,14.20
2023-04-24T05:24:16.396Z,14.30
2023-04-24T05:25:18.649Z,14.30
2023-04-24T05:26:20.833Z,14.30
2023-04-24T05:27:23.023Z,14.40
2023-04-24T05:28:29.405Z,14.40
2023-04-24T05:29:32.719Z,14.40
2023-04-24T05:30:35.017Z,14.50
2023-04-24T05:31:37.214Z,14.50
2023-04-24T05:32:39.534Z,14.50
2023-04-24T05:33:43.360Z,14.50
2023-04-24T05:34:45.556Z,14.50
2023-04-24T05:35:47.950Z,14.50
2023-04-24T05:36:51.708Z,14.50
2023-04-24T05:37:53.938Z,14.50
2023-04-24T05:38:56.604Z,14.50
2023-04-24T05:39:58.905Z,14.60
2023-04-24T05:41:01.445Z,14.60
2023-04-24T05:42:05.545Z,14.60
2023-04-24T05:43:07.745Z,14.60
2023-04-24T05:44:10.017Z,14.60
2023-04-24T05:45:17.451Z,14.70
2023-04-24T05:46:20.101Z,14.70
2023-04-24T05:47:23.147Z,14.70
2023-04-24T05:48:25.563Z,14.80
2023-04-24T05:49:29.187Z,14.80
2023-04-24T05:50:31.400Z,14.80
2023-04-24T05:51:33.588Z,14.80
2023-04-24T05:52:35.838Z,14.80
2023-04-24T05:53:38.077Z,14.90
2023-04-24T05:54:40.368Z,14.80
2023-04-24T05:55:42.829Z,14.80
2023-04-24T05:56:45.123Z,14.80
2023-04-24T05:57:48.292Z,14.80
2023-04-24T05:58:56.577Z,14.80
2023-04-24T05:59:59.347Z,14.80
2023-04-24T06:01:12.496Z,14.80
2023-04-24T06:02:22.424Z,14.80
2023-04-24T06:03:25.145Z,14.90
2023-04-24T06:04:35.558Z,14.90
2023-04-24T06:05:49.430Z,15.00
2023-04-24T06:07:00.262Z,15.00
2023-04-24T06:08:08.501Z,15.00
2023-04-24T06:09:16.473Z,15.00
2023-04-24T06:10:23.136Z,15.00
2023-04-24T06:11:30.491Z,15.00
2023-04-24T06:12:36.017Z,15.10
2023-04-24T06:13:50.979Z,15.20
2023-04-24T06:15:13.335Z,15.20
2023-04-24T06:16:31.926Z,15.30
2023-04-24T06:17:41.072Z,15.50
2023-04-24T06:18:57.158Z,15.60
2023-04-24T06:20:16.046Z,15.70
2023-04-24T06:21:42.177Z,15.70
2023-04-24T06:23:10.553Z,15.70
2023-04-24T06:24:23.208Z,15.80
2023-04-24T06:25:43.372Z,15.90
2023-04-24T06:26:52.154Z,16.00
2023-04-24T06:28:00.262Z,16.00
2023-04-24T06:29:10.924Z,16.10
2023-04-24T06:30:34.966Z,16.10
2023-04-24T06:31:47.843Z,16.10
2023-04-24T06:33:22.318Z,16.00
2023-04-24T06:34:32.576Z,16.00
2023-04-24T06:36:50.348Z,16.10
2023-04-24T06:38:01.955Z,16.10
2023-04-24T06:39:07.338Z,15.90
2023-04-24T06:40:18.300Z,15.90
2023-04-24T06:44:29.606Z,16.10
2023-04-24T06:45:37.728Z,16.20
2023-04-24T06:46:54.037Z,16.20
2023-04-24T06:48:08.250Z,16.20
2023-04-24T06:51:01.245Z,16.30
2023-04-24T06:52:50.354Z,16.40
2023-04-24T06:54:03.115Z,16.40
2023-04-24T06:55:16.665Z,16.50
2023-04-24T06:56:35.046Z,16.50
2023-04-24T06:57:45.944Z,16.40
2023-04-24T06:59:10.477Z,16.40
2023-04-24T07:00:28.354Z,16.50
2023-04-24T07:05:41.917Z,16.40
2023-04-24T07:06:47.411Z,16.40
2023-04-24T07:08:05.081Z,16.40
2023-04-24T07:09:20.021Z,16.50
2023-04-24T07:10:44.785Z,16.50
2023-04-24T07:12:14.867Z,16.60
2023-04-24T07:13:50.632Z,16.60
2023-04-24T07:15:11.778Z,16.60
2023-04-24T07:16:31.221Z,16.70
2023-04-24T07:19:24.610Z,16.80
2023-04-24T07:20:29.600Z,16.90
2023-04-24T07:21:56.320Z,16.90
2023-04-24T07:23:15.949Z,16.90
2023-04-24T07:24:26.818Z,17.00
2023-04-24T07:25:42.167Z,17.00
2023-04-24T07:26:50.463Z,17.10
2023-04-24T07:28:04.160Z,17.10
2023-04-24T07:29:16.977Z,17.10
2023-04-24T07:30:25.300Z,17.00
2023-04-24T07:31:38.041Z,17.00
2023-04-24T07:32:40.342Z,17.10
2023-04-24T07:33:42.753Z,17.20
2023-04-24T07:34:44.906Z,17.30
2023-04-24T07:35:47.576Z,17.30
2023-04-24T07:36:51.333Z,17.30
2023-04-24T07:37:54.361Z,17.40
2023-04-24T07:38:57.728Z,17.40
2023-04-24T07:39:59.861Z,17.40
2023-04-24T07:41:02.187Z,17.30
2023-04-24T07:42:04.544Z,17.40
2023-04-24T07:43:06.709Z,17.40
2023-04-24T07:44:09.128Z,17.40
2023-04-24T07:45:11.304Z,17.50
2023-04-24T07:46:13.490Z,17.50
2023-04-24T07:47:18.459Z,17.50
2023-04-24T07:48:22.527Z,17.50
2023-04-24T07:49:24.751Z,17.40
2023-04-24T07:50:26.996Z,17.40
2023-04-24T07:51:29.282Z,17.40
2023-04-24T07:52:32.843Z,17.40
2023-04-24T07:53:35.021Z,17.40
2023-04-24T07:54:38.621Z,17.40
2023-04-24T07:55:40.838Z,17.40
2023-04-24T07:56:44.284Z,17.40
2023-04-24T07:57:46.488Z,17.40
2023-04-24T07:58:48.635Z,17.40
2023-04-24T07:59:50.881Z,17.30
2023-04-24T08:00:52.989Z,17.30
2023-04-24T08:01:55.523Z,17.30
2023-04-24T08:02:58.021Z,17.30
2023-04-24T08:04:01.073Z,17.30
2023-04-24T08:05:04.726Z,17.30
2023-04-24T08:06:07.366Z,17.30
2023-04-24T08:07:09.617Z,17.30
2023-04-24T08:08:13.138Z,17.30
2023-04-24T08:09:15.390Z,17.30
2023-04-24T08:10:17.568Z,17.30
2023-04-24T08:11:19.698Z,17.30
2023-04-24T08:12:21.817Z,17.30
2023-04-24T08:13:24.224Z,17.30
2023-04-24T08:14:26.376Z,17.30
2023-04-24T08:15:29.104Z,17.20
2023-04-24T08:16:31.571Z,17.30
2023-04-24T08:17:34.471Z,17.30
2023-04-24T08:18:37.099Z,17.30
2023-04-24T08:19:43.778Z,17.30
2023-04-24T08:20:46.791Z,17.30
2023-04-24T08:21:48.946Z,17.30
2023-04-24T08:22:51.109Z,17.30
2023-04-24T08:23:54.598Z,17.20
2023-04-24T08:24:58.049Z,17.30
2023-04-24T08:26:00.204Z,17.30
2023-04-24T08:27:02.425Z,17.30
2023-04-24T08:28:06.796Z,17.20
2023-04-24T08:29:09.070Z,17.20
2023-04-24T08:30:11.939Z,17.30
2023-04-24T08:31:14.171Z,17.30
2023-04-24T08:32:16.392Z,17.40
2023-04-24T08:33:18.480Z,17.40
2023-04-24T08:34:21.029Z,17.40
2023-04-24T08:35:24.005Z,17.50
2023-04-24T08:36:36.049Z,17.60
2023-04-24T08:37:46.260Z,17.60
2023-04-24T08:38:48.580Z,17.60
2023-04-24T08:39:52.321Z,17.70
2023-04-24T08:40:54.672Z,17.70
2023-04-24T08:41:57.083Z,17.70
2023-04-24T08:43:00.406Z,17.80
2023-04-24T08:44:03.565Z,17.90
2023-04-24T08:45:07.333Z,17.90
2023-04-24T08:46:12.354Z,18.00
2023-04-24T08:47:16.420Z,18.00
2023-04-24T08:48:29.596Z,18.10
2023-04-24T08:49:33.143Z,18.10
2023-04-24T08:50:36.016Z,18.00
2023-04-24T08:51:39.046Z,18.10
2023-04-24T08:52:42.883Z,18.10
2023-04-24T08:53:46.397Z,18.10
2023-04-24T08:55:19.046Z,18.00
2023-04-24T08:56:24.582Z,17.90
2023-04-24T08:57:27.988Z,17.90
2023-04-24T08:58:31.766Z,17.90
2023-04-24T08:59:35.129Z,18.00
2023-04-24T09:00:39.835Z,18.10
2023-04-24T09:01:42.651Z,18.20
2023-04-24T09:02:46.578Z,18.20
2023-04-24T09:03:50.969Z,18.20
2023-04-24T09:04:55.197Z,18.20
2023-04-24T09:05:59.385Z,18.20
2023-04-24T09:07:01.969Z,18.20
2023-04-24T09:08:06.302Z,18.20
2023-04-24T09:09:09.533Z,18.20
2023-04-24T09:10:13.928Z,18.20
2023-04-24T09:11:16.549Z,18.30
2023-04-24T09:12:19.039Z,18.40
2023-04-24T09:13:21.655Z,18.60
2023-04-24T09:14:24.869Z,18.60
2023-04-24T09:15:27.771Z,18.70
2023-04-24T09:16:30.884Z,18.70
2023-04-24T09:17:34.399Z,18.70
2023-04-24T09:18:36.682Z,18.80
2023-04-24T09:19:39.048Z,18.90
2023-04-24T09:20:59.530Z,18.90
2023-04-24T09:22:06.288Z,19.00
2023-04-24T09:23:11.232Z,19.10
2023-04-24T09:24:18.907Z,19.20
2023-04-24T09:25:22.754Z,19.30
2023-04-24T09:26:25.360Z,19.30
2023-04-24T09:27:30.077Z,19.30
2023-04-24T09:28:36.065Z,19.30
2023-04-24T09:29:38.281Z,19.30
2023-04-24T09:30:40.533Z,19.30
2023-04-24T09:31:42.842Z,19.30
2023-04-24T09:32:45.495Z,19.30
2023-04-24T09:33:57.736Z,19.30
2023-04-24T09:35:09.682Z,19.30
2023-04-24T09:36:11.890Z,19.20
2023-04-24T09:37:29.025Z,19.20
2023-04-24T09:38:35.592Z,19.20
2023-04-24T09:39:37.880Z,19.30
2023-04-24T09:40:44.280Z,19.40
2023-04-24T09:41:48.082Z,19.60
2023-04-24T09:42:54.945Z,19.70
2023-04-24T09:43:57.785Z,19.80
2023-04-24T09:45:11.822Z,19.80
2023-04-24T09:46:20.059Z,19.90
2023-04-24T09:47:22.400Z,20.00
2023-04-24T09:48:32.829Z,20.10
2023-04-24T09:49:36.076Z,20.10
2023-04-24T09:50:40.947Z,20.10
2023-04-24T09:51:43.873Z,20.20
2023-04-24T09:52:47.431Z,20.40
2023-04-24T09:53:54.019Z,20.50
2023-04-24T09:54:57.106Z,20.50
2023-04-24T09:56:09.314Z,20.50
2023-04-24T09:57:11.708Z,20.60
2023-04-24T09:58:14.028Z,20.50
2023-04-24T09:59:17.529Z,20.40
2023-04-24T10:00:22.987Z,20.40
2023-04-24T10:01:32.081Z,20.40
2023-04-24T10:02:34.560Z,20.30
2023-04-24T10:03:37.256Z,20.30
2023-04-24T10:04:39.701Z,20.40
2023-04-24T10:05:42.125Z,20.40
2023-04-24T10:06:45.274Z,20.40
2023-04-24T10:07:49.566Z,20.40
2023-04-24T10:08:52.495Z,20.50
2023-04-24T10:09:55.303Z,20.50
2023-04-24T10:11:01.338Z,20.50
2023-04-24T10:12:05.743Z,20.40
2023-04-24T10:13:09.001Z,20.40
2023-04-24T10:14:13.154Z,20.30
2023-04-24T10:15:16.536Z,20.30
2023-04-24T10:16:19.715Z,20.30
2023-04-24T10:17:23.011Z,20.30
2023-04-24T10:18:26.342Z,20.30
2023-04-24T10:19:30.700Z,20.20
2023-04-24T10:20:33.423Z,20.20
2023-04-24T10:21:36.708Z,20.20
2023-04-24T10:22:39.241Z,20.10
2023-04-24T10:23:42.743Z,20.20
2023-04-24T10:24:46.356Z,20.20
2023-04-24T10:25:50.733Z,20.20
2023-04-24T10:26:53.515Z,20.20
2023-04-24T10:28:00.972Z,20.40
2023-04-24T10:29:03.452Z,20.50
2023-04-24T10:30:08.084Z,20.50
2023-04-24T10:31:11.630Z,20.50
2023-04-24T10:32:13.843Z,20.70
2023-04-24T10:33:17.071Z,20.80
2023-04-24T10:34:21.878Z,20.80
2023-04-24T10:35:27.826Z,20.70
2023-04-24T10:36:33.933Z,20.80
2023-04-24T10:37:39.265Z,20.90
2023-04-24T10:38:44.600Z,20.90
2023-04-24T10:39:49.527Z,20.90
2023-04-24T10:40:51.685Z,21.10
2023-04-24T10:41:57.579Z,21.30
2023-04-24T10:43:03.188Z,21.40
2023-04-24T10:44:08.599Z,21.40
2023-04-24T10:45:19.103Z,21.50
2023-04-24T10:46:22.722Z,21.70
2023-04-24T10:47:26.254Z,21.90
2023-04-24T10:48:28.627Z,22.00
2023-04-24T10:49:31.648Z,22.30
2023-04-24T10:50:44.946Z,22.60
2023-04-24T10:51:49.344Z,22.60
2023-04-24T10:52:53.701Z,22.40
2023-04-24T10:53:59.012Z,22.30
2023-04-24T10:55:03.159Z,22.20
2023-04-24T10:56:06.833Z,22.10
2023-04-24T10:57:31.032Z,21.90
2023-04-24T10:58:44.273Z,21.70
2023-04-24T10:59:47.069Z,21.60
2023-04-24T11:00:58.339Z,21.50
2023-04-24T11:02:00.550Z,21.40
2023-04-24T11:03:05.506Z,21.40
2023-04-24T11:04:07.918Z,21.30
2023-04-24T11:05:12.017Z,21.30
2023-04-24T11:06:15.125Z,21.40
2023-04-24T11:07:17.326Z,21.50
2023-04-24T11:08:33.741Z,21.50
2023-04-24T11:09:37.478Z,21.60
2023-04-24T11:10:41.355Z,21.70
2023-04-24T11:11:47.344Z,21.60
2023-04-24T11:12:51.830Z,21.60
2023-04-24T11:14:07.635Z,21.50
2023-04-24T11:15:11.952Z,21.40
2023-04-24T11:16:16.171Z,21.30
2023-04-24T11:17:33.073Z,21.20
2023-04-24T11:18:46.341Z,21.20
2023-04-24T11:19:53.566Z,21.10
2023-04-24T11:20:56.720Z,21.00
2023-04-24T11:22:02.476Z,21.00
2023-04-24T11:23:07.733Z,20.80
2023-04-24T11:24:31.773Z,20.70
2023-04-24T11:25:34.166Z,20.70
2023-04-24T11:26:40.082Z,20.70
2023-04-24T11:27:43.685Z,20.70
2023-04-24T11:28:47.292Z,20.60
2023-04-24T11:30:01.897Z,20.60
2023-04-24T11:31:40.723Z,20.60
2023-04-24T11:32:44.078Z,20.60
2023-04-24T11:33:46.403Z,20.40
2023-04-24T11:34:49.778Z,20.40
2023-04-24T11:35:55.181Z,20.40
2023-04-24T11:37:00.547Z,20.30
2023-04-24T11:38:19.372Z,20.30
2023-04-24T11:39:26.812Z,20.40
2023-04-24T11:40:29.212Z,20.40
2023-04-24T11:41:31.783Z,20.40
2023-04-24T11:42:37.500Z,20.40
2023-04-24T11:43:41.693Z,20.30
2023-04-24T11:44:44.925Z,20.40
2023-04-24T11:45:51.358Z,20.30
2023-04-24T11:46:53.778Z,20.30
2023-04-24T11:47:56.018Z,20.30
2023-04-24T11:48:59.121Z,20.30
2023-04-24T11:50:03.391Z,20.30
2023-04-24T11:51:05.873Z,20.40
2023-04-24T11:52:08.356Z,20.40
2023-04-24T11:53:11.108Z,20.40
2023-04-24T11:54:13.454Z,20.50
2023-04-24T11:55:29.907Z,20.50
2023-04-24T11:56:32.306Z,20.50
2023-04-24T11:57:35.570Z,20.60
2023-04-24T11:58:40.733Z,20.60
2023-04-24T11:59:43.725Z,20.60
2023-04-24T12:00:46.803Z,20.60
2023-04-24T12:01:51.417Z,20.60
2023-04-24T12:03:07.655Z,20.60
2023-04-24T12:04:10.301Z,20.60
2023-04-24T12:05:21.334Z,20.60
2023-04-24T12:06:23.737Z,20.50
2023-04-24T12:07:26.214Z,20.50
2023-04-24T12:08:29.681Z,20.40
2023-04-24T12:09:42.875Z,20.40
2023-04-24T12:10:45.018Z,20.50
2023-04-24T12:11:55.624Z,20.50
2023-04-24T12:13:00.707Z,20.50
2023-04-24T12:14:11.982Z,20.50
2023-04-24T12:15:14.124Z,20.50
2023-04-24T12:16:16.484Z,20.50
2023-04-24T12:17:27.880Z,20.50
2023-04-24T12:18:31.133Z,20.50
2023-04-24T12:19:33.219Z,20.50
2023-04-24T12:20:37.167Z,20.60
2023-04-24T12:21:39.269Z,20.70
2023-04-24T12:22:46.803Z,20.70
2023-04-24T12:23:49.465Z,20.80
2023-04-24T12:24:59.778Z,20.90
2023-04-24T12:26:02.644Z,21.00
2023-04-24T12:27:05.043Z,21.10
2023-04-24T12:28:12.232Z,21.20
2023-04-24T12:29:21.688Z,21.60
2023-04-24T12:30:32.549Z,21.90
2023-04-24T12:31:34.790Z,22.20
2023-04-24T12:32:42.805Z,22.50
2023-04-24T12:33:45.462Z,22.80
2023-04-24T12:34:48.338Z,23.10
2023-04-24T12:35:56.571Z,23.50
2023-04-24T12:37:11.258Z,23.90
2023-04-24T12:38:16.677Z,24.10
2023-04-24T12:39:20.516Z,23.80
2023-04-24T12:40:26.332Z,23.50
2023-04-24T12:41:31.675Z,24.20
2023-04-24T12:42:34.272Z,24.40
2023-04-24T12:43:37.058Z,25.30
2023-04-24T12:44:39.226Z,26.00
2023-04-24T12:45:41.410Z,26.80
2023-04-24T12:46:44.655Z,26.20
2023-04-24T12:47:51.377Z,25.50
2023-04-24T12:48:53.702Z,24.80
2023-04-24T12:49:56.430Z,24.40
2023-04-24T12:51:01.714Z,24.00
2023-04-24T12:52:03.839Z,24.10
2023-04-24T12:53:07.009Z,24.40
2023-04-24T12:54:09.333Z,24.10
2023-04-24T12:55:13.129Z,24.00
2023-04-24T12:56:15.460Z,23.90
2023-04-24T12:57:17.968Z,23.90
2023-04-24T12:58:21.184Z,23.80
2023-04-24T12:59:23.592Z,24.00
2023-04-24T13:00:25.824Z,24.00
2023-04-24T13:01:28.364Z,24.30
2023-04-24T13:02:32.392Z,24.60
2023-04-24T13:03:36.667Z,24.50
2023-04-24T13:04:39.221Z,24.40
2023-04-24T13:05:41.764Z,24.60
2023-04-24T13:06:44.118Z,25.90
2023-04-24T13:07:46.412Z,27.20
2023-04-24T13:08:49.558Z,27.90
2023-04-24T13:09:56.650Z,27.80
2023-04-24T13:10:58.960Z,28.20
2023-04-24T13:12:04.389Z,29.30
2023-04-24T13:13:06.734Z,30.00
2023-04-24T13:14:09.205Z,29.20
2023-04-24T13:15:11.896Z,29.50
2023-04-24T13:16:16.451Z,30.20
2023-04-24T13:17:19.175Z,30.40
2023-04-24T13:18:21.914Z,30.50
2023-04-24T13:19:27.979Z,30.90
2023-04-24T13:20:30.410Z,31.20
2023-04-24T13:21:32.986Z,32.10
2023-04-24T13:22:35.364Z,33.10
2023-04-24T13:23:40.829Z,33.80
2023-04-24T13:24:43.378Z,34.10
2023-04-24T13:25:45.573Z,34.10
2023-04-24T13:26:48.092Z,33.30
2023-04-24T13:27:50.462Z,32.70
2023-04-24T13:28:52.686Z,31.90
2023-04-24T13:29:54.941Z,31.50
2023-04-24T13:30:57.215Z,32.20
2023-04-24T13:32:01.788Z,33.00
2023-04-24T13:33:04.404Z,33.30
2023-04-24T13:34:06.930Z,33.80
2023-04-24T13:35:11.179Z,34.10
2023-04-24T13:36:13.422Z,33.80
2023-04-24T13:37:15.629Z,33.70
2023-04-24T13:38:17.825Z,34.00
2023-04-24T13:39:19.952Z,33.90
2023-04-24T13:40:22.230Z,33.20
2023-04-24T13:41:24.455Z,32.10
2023-04-24T13:42:26.665Z,31.80
2023-04-24T13:43:28.853Z,31.30
2023-04-24T13:44:31.050Z,31.10
2023-04-24T13:45:33.227Z,30.50
2023-04-24T13:46:35.877Z,30.30
2023-04-24T13:47:38.299Z,30.00
2023-04-24T13:48:40.711Z,29.80
2023-04-24T13:49:42.986Z,29.60
2023-04-24T13:50:49.626Z,29.40
2023-04-24T13:51:52.111Z,29.30
2023-04-24T13:52:55.248Z,28.80
2023-04-24T13:53:57.502Z,27.90
2023-04-24T13:54:59.652Z,27.10
2023-04-24T13:56:06.869Z,27.00
2023-04-24T13:57:09.211Z,27.00
2023-04-24T13:58:11.595Z,26.30
2023-04-24T13:59:14.448Z,25.60
2023-04-24T14:00:17.653Z,25.70
2023-04-24T14:01:19.905Z,25.40
2023-04-24T14:02:22.096Z,24.80
2023-04-24T14:03:24.386Z,24.30
2023-04-24T14:04:26.901Z,23.90
2023-04-24T14:05:29.192Z,23.50